首页
METAR-TAF:

METAR-TAF

机场 :

哈米德·卡尔扎伊国际机场

喀布尔, 阿富汗

纬度: 34-38N, 经度: 069-12E, 海拔: 1789米

当前天气观测

该预报发布于1小时和4分钟前的16:50 UTC
风速5节,风向东北
温度 24°C
湿度 24%
气压 1013 hPa
能见度10公里或以上
1500米以下无云,无积雨云

METAR: OAKB 231650Z 05005KT CAVOK 24/02 Q1013 NOSIG RMK A2992 BLU BLU

时间: 22:24 (17:54 UTC)

预报

该预报发布于49分钟前的17:05 UTC
预报有效从23日的 18点(UTC)到 24日的 18点(UTC)
风速2节,风向多变
能见度10公里或以上
1500米以下无云,无积雨云
成为
从 24日的 04点(UTC)到 24日的 06点(UTC)
风速12节,风向
少量云层高于10000英尺
成为
从 24日的 07点(UTC)到 24日的 09点(UTC)
风速15节,风向,有时为25节阵风
散云层高于12000英尺
短暂存在
从 24日的 12点(UTC)到 24日的 18点(UTC)
风速25节,风向北转东北,有时为35节阵风

TAF: OAKB 231705Z 2318/2418 VRB02KT CAVOK BECMG 2404/2406 01012KT FEW100 BECMG 2407/2409 36015G25KT SCT120 TEMPO 2412/2418 03025G35KT

超过4000个机场的气象观测和天气预报(METAR&TAF报告)。

可查询的气象台以黄色和红色小点在地图上表示。

将鼠标移到小点上方,可查看气象台名称。

然后点击查看天气观测和预报。

如需切换地图:点击带黑十字的绿色按钮放大地图;点击带横线的绿色按钮缩小地图;或者点击绿色箭头查看邻近地区的地图。


METAR-TAF: